Time;durP1;ratioP1;P1;durP2;ratioP2;P2;SDS_P1;SDS_P2;PMS_P1;PMS_P2;Temp;Humidity;BMP_temperature;BMP_pressure;BME280_temperature;BME280_humidity;BME280_pressure;Samples;Min_cycle;Max_cycle;Signal;HPM_P1;HPM_P2
2023/09/01 08:01:15;;;;;;;;;;;;;;;27.25;100.00;99767.91;4995930;27;3758130;-70
2023/09/01 08:03:42;;;;;;;;;;;;;;;27.26;100.00;99775.09;5129968;28;990;-69
2023/09/01 08:06:09;;;;;;;;;;;;;;;26.87;100.00;99775.91;5130123;27;826;-69
2023/09/01 08:08:35;;;;;;;;;;;;;;;27.17;100.00;99769.69;5129889;28;893;-73
2023/09/01 08:11:02;;;;;;;;;;;;;;;27.43;100.00;99766.53;5128654;28;1346;-69
2023/09/01 08:13:30;;;;;;;;;;;;;;;27.72;100.00;99772.91;5129788;27;910;-70
2023/09/01 08:15:57;;;;;;;;;;;;;;;27.76;100.00;99781.13;5130096;27;911;-66
2023/09/01 08:18:23;;;;;;;;;;;;;;;27.53;91.85;99771.94;5129734;27;834;-69
2023/09/01 08:20:51;;;;;;;;;;;;;;;28.01;91.08;99771.47;5129636;27;920;-70
2023/09/01 08:23:21;;;;;;;;;;;;;;;28.03;88.48;99768.13;5129622;27;933;-71
2023/09/01 08:25:48;;;;;;;;;;;;;;;27.97;86.48;99778.72;5129629;27;831;-71
2023/09/01 08:28:15;;;;;;;;;;;;;;;28.28;90.40;99781.13;5129923;27;850;-68
2023/09/01 08:30:43;;;;;;;;;;;;;;;28.62;86.13;99778.06;5128199;28;1420;-72
2023/09/01 08:33:10;;;;;;;;;;;;;;;28.62;82.29;99792.28;5129499;27;835;-69
2023/09/01 08:35:37;;;;;;;;;;;;;;;28.83;88.29;99777.66;5128222;28;1225;-71
2023/09/01 08:38:05;;;;;;;;;;;;;;;28.74;85.76;99780.81;5129503;27;831;-71
2023/09/01 08:40:31;;;;;;;;;;;;;;;28.34;83.60;99788.84;5129293;27;1944;-70
2023/09/01 08:43:00;;;;;;;;;;;;;;;28.50;83.85;99787.97;5129648;27;878;-69
2023/09/01 08:45:30;;;;;;;;;;;;;;;28.66;75.25;99787.09;5129352;27;892;-70
2023/09/01 08:47:57;;;;;;;;;;;;;;;28.51;77.33;99789.53;5129155;27;907;-72
2023/09/01 08:50:24;;;;;;;;;;;;;;;28.69;72.04;99785.25;5129212;27;815;-70
2023/09/01 08:52:51;;;;;;;;;;;;;;;28.66;73.85;99781.41;5127846;28;914;-70
2023/09/01 08:55:17;;;;;;;;;;;;;;;28.88;72.14;99791.78;5127712;28;922;-69
2023/09/01 08:57:47;;;;;;;;;;;;;;;28.79;73.24;99782.84;5129060;27;870;-70
2023/09/01 09:00:15;;;;;;;;;;;;;;;29.04;74.32;99772.25;5126418;27;1947;-69
2023/09/01 09:02:42;;;;;;;;;;;;;;;29.09;70.42;99783.63;5115066;28;823;-69
2023/09/01 09:05:13;;;;;;;;;;;;;;;28.80;68.87;99784.38;5115391;28;819;-68
2023/09/01 09:07:41;;;;;;;;;;;;;;;28.89;78.26;99786.88;5115101;28;871;-73
2023/09/01 09:10:08;;;;;;;;;;;;;;;29.08;68.35;99787.75;5115116;28;835;-71
2023/09/01 09:12:43;;;;;;;;;;;;;;;29.08;68.00;99782.06;5115054;28;945;-72
2023/09/01 09:15:14;;;;;;;;;;;;;;;29.06;70.04;99786.72;5115021;28;922;-71
2023/09/01 09:17:45;;;;;;;;;;;;;;;28.99;71.27;99796.63;5114821;28;827;-71
2023/09/01 09:20:13;;;;;;;;;;;;;;;29.10;72.24;99782.31;5114840;28;1968;-70
2023/09/01 09:22:52;;;;;;;;;;;;;;;29.33;76.23;99784.16;5115011;28;1320;-69
2023/09/01 09:25:30;;;;;;;;;;;;;;;29.56;75.70;99785.44;5115096;28;800;-73
2023/09/01 09:28:02;;;;;;;;;;;;;;;29.41;67.04;99793.66;5115266;28;886;-69
2023/09/01 09:42:42;;;;;;;;;;;;;;;29.31;71.40;99801.75;5109909;28;642;-70
2023/09/01 09:45:21;;;;;;;;;;;;;;;29.03;69.08;99810.56;5114476;28;893;-69
2023/09/01 09:47:49;;;;;;;;;;;;;;;28.71;69.58;99796.88;5114354;28;829;-71
2023/09/01 09:50:18;;;;;;;;;;;;;;;28.83;72.66;99804.00;5114229;28;850;-71
2023/09/01 09:52:47;;;;;;;;;;;;;;;29.04;68.60;99803.53;5114290;28;811;-73
2023/09/01 09:55:20;;;;;;;;;;;;;;;29.04;67.44;99807.19;5114425;28;879;-68
2023/09/01 09:57:48;;;;;;;;;;;;;;;28.84;67.96;99807.63;5114222;28;933;-69
2023/09/01 10:00:15;;;;;;;;;;;;;;;28.92;69.44;99806.50;5113727;28;1870;-70
2023/09/01 10:02:47;;;;;;;;;;;;;;;29.04;69.78;99812.09;5112749;28;1327;-69
2023/09/01 10:05:15;;;;;;;;;;;;;;;29.18;69.09;99810.19;5114034;28;822;-69
2023/09/01 10:07:43;;;;;;;;;;;;;;;29.31;68.66;99810.28;5113888;28;855;-70
2023/09/01 10:10:11;;;;;;;;;;;;;;;29.39;67.79;99819.78;5113102;28;1396;-70
2023/09/01 10:12:38;;;;;;;;;;;;;;;29.60;68.93;99802.22;5112756;28;897;-69
2023/09/01 10:15:06;;;;;;;;;;;;;;;29.84;69.65;99804.28;5112743;28;1218;-73
2023/09/01 10:17:34;;;;;;;;;;;;;;;29.86;68.47;99813.84;5113603;28;858;-72
2023/09/01 10:20:06;;;;;;;;;;;;;;;29.80;67.52;99798.88;5112329;28;1910;-74
2023/09/01 10:22:38;;;;;;;;;;;;;;;29.94;68.42;99808.31;5112447;28;1240;-72
2023/09/01 10:25:12;;;;;;;;;;;;;;;30.02;72.67;99806.38;5113991;28;854;-69
2023/09/01 10:28:00;;;;;;;;;;;;;;;30.38;71.59;99811.84;5113555;28;812;-69
2023/09/01 10:30:27;;;;;;;;;;;;;;;30.30;67.63;99808.09;5113440;28;815;-69
2023/09/01 10:33:10;;;;;;;;;;;;;;;30.32;65.35;99814.00;5113448;28;902;-70
2023/09/01 10:35:37;;;;;;;;;;;;;;;30.32;66.00;99809.09;5113515;28;827;-71
2023/09/01 10:38:15;;;;;;;;;;;;;;;30.40;67.03;99799.91;5112121;28;1427;-70
2023/09/01 10:40:45;;;;;;;;;;;;;;;30.40;65.89;99803.53;5113166;28;1901;-69
2023/09/01 10:43:13;;;;;;;;;;;;;;;30.42;62.71;99805.84;5113700;28;961;-69
2023/09/01 10:45:40;;;;;;;;;;;;;;;30.47;62.65;99802.13;5113202;28;854;-68
2023/09/01 10:48:13;;;;;;;;;;;;;;;30.64;63.99;99796.94;5113198;28;885;-70
2023/09/01 10:50:42;;;;;;;;;;;;;;;30.89;65.97;99799.66;5113102;28;1004;-69
2023/09/01 10:53:28;;;;;;;;;;;;;;;31.00;57.63;99799.44;5113022;28;844;-70
2023/09/01 10:56:12;;;;;;;;;;;;;;;30.74;50.98;99798.03;5113079;28;850;-75
2023/09/01 10:58:41;;;;;;;;;;;;;;;30.65;48.21;99804.16;5112919;28;1914;-73
2023/09/01 11:01:27;;;;;;;;;;;;;;;30.90;48.82;99799.13;5112837;28;1297;-72
2023/09/01 11:03:56;;;;;;;;;;;;;;;31.21;49.17;99791.03;5112790;28;936;-70
2023/09/01 11:06:23;;;;;;;;;;;;;;;31.38;50.26;99798.50;5112840;28;851;-70
2023/09/01 11:09:01;;;;;;;;;;;;;;;31.58;50.07;99797.09;5112673;28;905;-70
2023/09/01 11:11:28;;;;;;;;;;;;;;;31.83;49.94;99795.53;5113038;28;886;-70
2023/09/01 11:14:01;;;;;;;;;;;;;;;32.19;48.97;99795.03;5112594;28;840;-73
2023/09/01 11:16:28;;;;;;;;;;;;;;;32.37;49.12;99792.56;5112683;28;835;-70
2023/09/01 11:19:04;;;;;;;;;;;;;;;32.70;48.38;99793.88;5112538;28;1937;-73
2023/09/01 11:21:32;;;;;;;;;;;;;;;32.47;46.30;99793.63;5111233;28;1179;-69
2023/09/01 11:24:03;;;;;;;;;;;;;;;32.74;47.98;99795.03;5112487;28;850;-69
2023/09/01 11:26:30;;;;;;;;;;;;;;;32.92;47.57;99798.25;5112399;28;851;-69
2023/09/01 11:28:58;;;;;;;;;;;;;;;33.17;48.22;99795.78;5112516;28;950;-69
2023/09/01 11:31:36;;;;;;;;;;;;;;;33.30;48.18;99792.81;5112467;28;927;-70
2023/09/01 11:34:03;;;;;;;;;;;;;;;33.04;49.20;99790.13;5112470;28;940;-69
2023/09/01 11:36:32;;;;;;;;;;;;;;;32.88;47.62;99792.09;5112384;28;807;-70
2023/09/01 11:38:59;;;;;;;;;;;;;;;32.59;44.66;99791.28;5111098;28;1889;-68
2023/09/01 11:41:27;;;;;;;;;;;;;;;32.43;44.71;99793.94;5112438;28;814;-70
2023/09/01 11:43:56;;;;;;;;;;;;;;;32.36;43.45;99788.94;5112255;28;826;-70
2023/09/01 11:46:33;;;;;;;;;;;;;;;32.24;41.50;99785.59;5112225;28;842;-73
2023/09/01 11:49:04;;;;;;;;;;;;;;;32.19;39.90;99785.69;5112358;28;851;-69
2023/09/01 11:51:31;;;;;;;;;;;;;;;32.27;39.68;99792.28;5112299;28;893;-69
2023/09/01 11:53:58;;;;;;;;;;;;;;;32.46;39.02;99794.94;5112148;28;1065;-69
2023/09/01 11:56:26;;;;;;;;;;;;;;;32.55;39.64;99786.66;5112243;28;892;-70
2023/09/01 11:58:55;;;;;;;;;;;;;;;32.19;38.93;99791.41;5112022;28;1889;-69
2023/09/01 12:01:23;;;;;;;;;;;;;;;32.52;39.09;99798.44;5112172;28;933;-70
2023/09/01 12:03:54;;;;;;;;;;;;;;;33.02;38.81;99782.09;5112026;28;830;-73
2023/09/01 12:06:22;;;;;;;;;;;;;;;33.33;37.92;99788.09;5112198;28;799;-71
2023/09/01 12:09:08;;;;;;;;;;;;;;;33.36;36.71;99784.84;5112092;28;823;-69
2023/09/01 12:11:33;;;;;;;;;;;;;;;33.22;37.04;99789.13;5112008;28;1025;-71
2023/09/01 12:14:21;;;;;;;;;;;;;;;33.47;36.35;99777.28;5112075;28;792;-71
2023/09/01 12:16:52;;;;;;;;;;;;;;;34.11;36.69;99784.25;5093215;28;1196;-69
2023/09/01 12:19:24;;;;;;;;;;;;;;;34.42;35.39;99788.00;5111915;28;1921;-69
2023/09/01 12:21:53;;;;;;;;;;;;;;;33.36;35.83;99779.13;5111822;28;828;-70
2023/09/01 12:24:20;;;;;;;;;;;;;;;32.64;37.32;99779.69;5112053;28;870;-69
2023/09/01 12:26:47;;;;;;;;;;;;;;;32.26;37.35;99771.50;5112063;28;910;-70
2023/09/01 12:29:14;;;;;;;;;;;;;;;32.52;35.45;99779.19;5112007;28;866;-71
2023/09/01 12:31:43;;;;;;;;;;;;;;;33.23;34.91;99773.50;5112221;28;812;-69
2023/09/01 12:34:10;;;;;;;;;;;;;;;34.33;33.95;99768.47;5111761;28;879;-69
2023/09/01 12:36:36;;;;;;;;;;;;;;;34.92;32.33;99759.72;5114064;28;811;-69
2023/09/01 12:39:04;;;;;;;;;;;;;;;34.95;32.26;99767.19;5115567;28;1954;-70
2023/09/01 12:41:30;;;;;;;;;;;;;;;34.99;31.98;99766.78;5115743;28;882;-72
2023/09/01 12:43:57;;;;;;;;;;;;;;;33.69;32.45;99768.06;5115717;28;899;-72
2023/09/01 12:46:24;;;;;;;;;;;;;;;32.51;34.27;99763.34;5116021;28;847;-70
2023/09/01 12:48:51;;;;;;;;;;;;;;;33.35;33.40;99766.13;5115654;28;831;-69
2023/09/01 12:51:17;;;;;;;;;;;;;;;33.80;32.42;99761.22;5115748;28;819;-69
2023/09/01 12:53:44;;;;;;;;;;;;;;;34.08;31.95;99771.06;5115741;27;827;-69
2023/09/01 12:56:11;;;;;;;;;;;;;;;34.75;31.47;99763.16;5115731;28;875;-69
2023/09/01 12:58:39;;;;;;;;;;;;;;;35.40;31.39;99759.09;5115513;28;1965;-69
2023/09/01 13:01:06;;;;;;;;;;;;;;;35.36;29.56;99765.22;5115244;28;1306;-70
2023/09/01 13:03:33;;;;;;;;;;;;;;;34.95;29.77;99772.16;5115415;28;847;-71
2023/09/01 13:05:59;;;;;;;;;;;;;;;35.23;30.22;99758.94;5115704;28;815;-70
2023/09/01 13:08:29;;;;;;;;;;;;;;;35.69;29.72;99758.84;5113957;28;1193;-70
2023/09/01 13:10:56;;;;;;;;;;;;;;;35.77;29.79;99753.81;5115229;28;859;-71
2023/09/01 13:13:28;;;;;;;;;;;;;;;35.05;29.76;99753.00;5113941;28;1518;-72
2023/09/01 13:15:55;;;;;;;;;;;;;;;34.32;29.99;99767.69;5112514;28;1226;-72
2023/09/01 13:18:22;;;;;;;;;;;;;;;33.76;30.60;99766.56;5114872;28;910;-69
2023/09/01 13:20:48;;;;;;;;;;;;;;;33.75;31.10;99777.22;5113492;28;1906;-68
2023/09/01 13:23:15;;;;;;;;;;;;;;;33.64;31.27;99771.84;5114772;28;795;-66
2023/09/01 13:25:42;;;;;;;;;;;;;;;33.65;31.72;99770.53;5115169;27;878;-68
2023/09/01 13:28:09;;;;;;;;;;;;;;;33.62;31.73;99771.66;5114831;28;877;-69
2023/09/01 13:30:38;;;;;;;;;;;;;;;33.38;32.47;99761.38;5114695;28;873;-68
2023/09/01 13:33:06;;;;;;;;;;;;;;;33.52;32.90;99764.88;5114956;28;833;-65
2023/09/01 13:35:34;;;;;;;;;;;;;;;33.44;32.12;99773.44;5114513;28;1024;-68
2023/09/01 13:38:00;;;;;;;;;;;;;;;33.17;32.53;99769.25;5114944;28;795;-67
2023/09/01 13:40:27;;;;;;;;;;;;;;;33.06;32.81;99770.31;5114435;28;1878;-70
2023/09/01 13:42:54;;;;;;;;;;;;;;;33.14;32.77;99774.78;5114513;28;858;-70
2023/09/01 13:45:20;;;;;;;;;;;;;;;33.05;32.64;99769.53;5114324;27;823;-70
2023/09/01 13:47:47;;;;;;;;;;;;;;;33.04;32.72;99767.25;5113054;28;1442;-69
2023/09/01 13:50:13;;;;;;;;;;;;;;;33.30;32.52;99777.75;5114335;28;886;-73
2023/09/01 13:52:40;;;;;;;;;;;;;;;33.33;32.76;99770.91;5114328;28;886;-70
2023/09/01 13:55:07;;;;;;;;;;;;;;;33.08;31.81;99776.28;5114289;28;811;-69
2023/09/01 13:57:34;;;;;;;;;;;;;;;32.58;32.02;99781.16;5112842;28;1285;-73
2023/09/01 14:00:01;;;;;;;;;;;;;;;32.04;32.84;99783.44;5113723;28;1941;-68
2023/09/01 14:02:29;;;;;;;;;;;;;;;32.05;33.71;99785.75;5114248;28;922;-68
2023/09/01 14:04:56;;;;;;;;;;;;;;;32.13;33.72;99785.81;5114102;28;819;-69
2023/09/01 14:07:23;;;;;;;;;;;;;;;32.11;33.62;99782.75;5113912;28;876;-69
2023/09/01 14:09:51;;;;;;;;;;;;;;;31.62;34.45;99784.03;5113999;27;859;-68
2023/09/01 14:12:18;;;;;;;;;;;;;;;31.25;34.98;99787.84;5113920;28;859;-69
2023/09/01 14:14:45;;;;;;;;;;;;;;;31.13;35.58;99782.38;5113727;28;831;-70
2023/09/01 14:17:12;;;;;;;;;;;;;;;31.02;35.38;99773.22;5114031;28;874;-71
2023/09/01 14:19:39;;;;;;;;;;;;;;;31.10;35.55;99771.25;5113959;28;1963;-69
2023/09/01 14:22:05;;;;;;;;;;;;;;;31.26;35.02;99775.91;5113959;28;842;-72
2023/09/01 14:24:32;;;;;;;;;;;;;;;31.21;34.16;99773.13;5113584;28;862;-68
2023/09/01 14:27:00;;;;;;;;;;;;;;;31.12;34.05;99771.50;5113642;28;878;-69
2023/09/01 14:29:29;;;;;;;;;;;;;;;31.13;33.95;99773.00;5113772;27;866;-68
2023/09/01 14:31:56;;;;;;;;;;;;;;;31.14;34.23;99775.31;5113616;28;874;-70
2023/09/01 14:34:23;;;;;;;;;;;;;;;30.88;34.01;99767.50;5113374;28;894;-68
2023/09/01 14:36:51;;;;;;;;;;;;;;;30.86;34.68;99767.28;5113406;28;870;-68
2023/09/01 14:39:18;;;;;;;;;;;;;;;30.92;34.96;99773.66;5113429;28;1944;-68
2023/09/01 14:41:45;;;;;;;;;;;;;;;30.86;34.50;99770.13;5113502;28;803;-64
2023/09/01 14:44:13;;;;;;;;;;;;;;;30.91;34.64;99771.34;5111244;28;1415;-66
2023/09/01 14:46:40;;;;;;;;;;;;;;;30.92;34.77;99770.03;5113232;28;936;-66
2023/09/01 14:49:07;;;;;;;;;;;;;;;30.98;34.14;99773.53;5113121;28;870;-66
2023/09/01 14:51:34;;;;;;;;;;;;;;;30.80;34.18;99771.53;5111782;28;867;-66
2023/09/01 14:54:01;;;;;;;;;;;;;;;30.63;33.79;99777.50;5113022;28;898;-66
2023/09/01 14:56:28;;;;;;;;;;;;;;;30.40;33.70;99768.53;5112937;28;933;-65
2023/09/01 14:58:55;;;;;;;;;;;;;;;30.24;34.80;99776.03;5112658;28;1889;-67
2023/09/01 15:01:22;;;;;;;;;;;;;;;30.13;35.32;99772.03;5112854;28;831;-66
2023/09/01 15:03:49;;;;;;;;;;;;;;;30.13;35.98;99774.88;5112854;28;882;-66
2023/09/01 15:06:15;;;;;;;;;;;;;;;30.03;35.73;99767.25;5112843;28;823;-67
2023/09/01 15:08:42;;;;;;;;;;;;;;;29.95;36.28;99761.41;5111808;28;1317;-65
2023/09/01 15:11:10;;;;;;;;;;;;;;;29.99;36.54;99763.94;5112976;28;874;-66
2023/09/01 15:13:37;;;;;;;;;;;;;;;29.98;37.42;99771.72;5112684;28;795;-68
2023/09/01 15:16:05;;;;;;;;;;;;;;;29.97;37.90;99769.41;5112743;28;815;-66
2023/09/01 15:18:32;;;;;;;;;;;;;;;29.89;37.41;99760.69;5112782;28;914;-66
2023/09/01 15:21:04;;;;;;;;;;;;;;;29.80;37.55;99764.72;5112803;28;1958;-69
2023/09/01 15:23:31;;;;;;;;;;;;;;;29.67;37.18;99767.44;5112835;27;795;-67
2023/09/01 15:25:58;;;;;;;;;;;;;;;29.54;37.32;99759.56;5112701;28;1172;-68
2023/09/01 15:28:25;;;;;;;;;;;;;;;29.51;37.82;99761.44;5111176;28;1350;-68
2023/09/01 15:30:52;;;;;;;;;;;;;;;29.49;38.57;99766.88;5111424;28;1312;-68
2023/09/01 15:33:19;;;;;;;;;;;;;;;29.48;38.43;99770.25;5112333;28;843;-67
2023/09/01 15:35:55;;;;;;;;;;;;;;;29.44;38.30;99766.94;5112466;28;846;-67
2023/09/01 15:38:21;;;;;;;;;;;;;;;29.36;38.10;99766.00;5112431;28;807;-68
2023/09/01 15:40:49;;;;;;;;;;;;;;;29.31;38.13;99771.22;5112227;28;1950;-68
2023/09/01 15:43:16;;;;;;;;;;;;;;;29.27;38.61;99770.75;5112270;28;866;-68
2023/09/01 15:45:46;;;;;;;;;;;;;;;29.18;38.33;99773.19;5112226;28;866;-66
2023/09/01 15:48:14;;;;;;;;;;;;;;;29.09;38.71;99777.94;5112349;28;889;-65
2023/09/01 15:50:41;;;;;;;;;;;;;;;29.02;39.25;99772.81;5112413;28;859;-67
2023/09/01 15:53:08;;;;;;;;;;;;;;;28.96;39.57;99777.00;5112225;28;894;-67
2023/09/01 15:55:37;;;;;;;;;;;;;;;28.90;40.00;99774.97;5112127;28;940;-67
2023/09/01 15:58:05;;;;;;;;;;;;;;;28.84;40.39;99773.50;5112254;28;858;-67
2023/09/01 16:00:34;;;;;;;;;;;;;;;28.80;40.17;99770.16;5111780;28;1893;-67
2023/09/01 16:03:01;;;;;;;;;;;;;;;28.74;40.63;99769.44;5112338;28;899;-67
2023/09/01 16:05:30;;;;;;;;;;;;;;;28.69;40.24;99768.94;5112109;28;898;-67
2023/09/01 16:07:57;;;;;;;;;;;;;;;28.56;41.08;99765.19;5110911;28;1527;-66
2023/09/01 16:10:24;;;;;;;;;;;;;;;28.37;41.41;99762.22;5112047;28;878;-66
2023/09/01 16:12:52;;;;;;;;;;;;;;;28.19;40.77;99766.47;5116111;28;894;-68
2023/09/01 16:15:25;;;;;;;;;;;;;;;28.02;41.17;99769.41;5116421;28;1201;-67
2023/09/01 16:17:52;;;;;;;;;;;;;;;27.84;41.29;99771.53;5116110;28;814;-67
2023/09/01 16:20:19;;;;;;;;;;;;;;;27.69;41.60;99768.25;5116105;28;1910;-67
2023/09/01 16:22:47;;;;;;;;;;;;;;;27.49;43.04;99769.38;5115937;28;893;-66
2023/09/01 16:25:14;;;;;;;;;;;;;;;27.25;44.09;99776.41;5116027;28;819;-66
2023/09/01 16:27:41;;;;;;;;;;;;;;;26.87;46.74;99772.31;5115856;28;851;-66
2023/09/01 16:30:08;;;;;;;;;;;;;;;26.46;48.90;99778.47;5115924;28;799;-66
2023/09/01 16:32:35;;;;;;;;;;;;;;;26.07;50.61;99777.13;5115902;28;866;-66
2023/09/01 16:35:08;;;;;;;;;;;;;;;25.72;52.89;99777.50;5115764;27;807;-66
2023/09/01 16:37:35;;;;;;;;;;;;;;;25.39;53.85;99789.41;5115754;27;880;-66
2023/09/01 16:40:05;;;;;;;;;;;;;;;25.16;54.94;99792.09;5115620;28;1885;-66
2023/09/01 16:42:32;;;;;;;;;;;;;;;24.92;56.05;99786.81;5115451;28;863;-65
2023/09/01 16:44:59;;;;;;;;;;;;;;;24.71;57.13;99791.78;5115575;28;797;-66
2023/09/01 16:47:27;;;;;;;;;;;;;;;24.50;58.40;99790.31;5115600;28;835;-66
2023/09/01 16:49:53;;;;;;;;;;;;;;;24.33;58.89;99795.75;5114152;28;887;-65
2023/09/01 16:52:21;;;;;;;;;;;;;;;24.22;59.48;99802.06;5115603;28;823;-66
2023/09/01 16:54:48;;;;;;;;;;;;;;;24.09;60.46;99796.00;5115311;28;882;-66
2023/09/01 16:57:14;;;;;;;;;;;;;;;23.93;61.69;99803.03;5115632;28;807;-66
2023/09/01 16:59:41;;;;;;;;;;;;;;;23.79;62.89;99799.78;5114914;28;1881;-66
2023/09/01 17:02:07;;;;;;;;;;;;;;;23.67;63.73;99800.13;5115659;28;874;-66
2023/09/01 17:04:34;;;;;;;;;;;;;;;23.55;64.95;99799.94;5115146;28;847;-66
2023/09/01 17:07:01;;;;;;;;;;;;;;;23.48;65.16;99808.06;5115288;28;795;-66
2023/09/01 17:09:30;;;;;;;;;;;;;;;23.44;64.70;99816.72;5115179;28;811;-66
2023/09/01 17:12:00;;;;;;;;;;;;;;;23.45;64.07;99807.00;5115002;27;862;-66
2023/09/01 17:14:27;;;;;;;;;;;;;;;23.44;64.39;99806.22;5115085;28;862;-66
2023/09/01 17:16:54;;;;;;;;;;;;;;;23.43;64.76;99818.00;5114961;28;853;-66
2023/09/01 17:19:21;;;;;;;;;;;;;;;23.40;64.99;99818.97;5114883;28;1975;-66
2023/09/01 17:21:47;;;;;;;;;;;;;;;23.38;65.27;99821.50;5114385;28;990;-67
2023/09/01 17:24:14;;;;;;;;;;;;;;;23.33;66.04;99825.81;5114866;28;803;-66
2023/09/01 17:26:41;;;;;;;;;;;;;;;23.28;66.20;99834.16;5114755;28;815;-66
2023/09/01 17:29:07;;;;;;;;;;;;;;;23.20;67.19;99836.63;5114779;28;799;-66
2023/09/01 17:31:34;;;;;;;;;;;;;;;23.07;69.20;99836.97;5114643;28;813;-66
2023/09/01 17:34:01;;;;;;;;;;;;;;;22.87;72.56;99846.06;5114645;28;823;-66
2023/09/01 17:36:27;;;;;;;;;;;;;;;22.75;73.56;99847.94;5114584;28;894;-66
2023/09/01 17:38:54;;;;;;;;;;;;;;;22.74;72.99;99842.78;5114727;28;1960;-66
2023/09/01 17:41:37;;;;;;;;;;;;;;;22.86;71.23;99843.75;5114708;28;815;-66
2023/09/01 17:44:06;;;;;;;;;;;;;;;23.00;70.58;99849.41;5114470;28;823;-66
2023/09/01 17:46:33;;;;;;;;;;;;;;;23.10;69.08;99852.09;5114492;28;870;-66
2023/09/01 17:49:01;;;;;;;;;;;;;;;23.17;68.41;99854.50;5114279;28;882;-66
2023/09/01 17:51:27;;;;;;;;;;;;;;;23.24;66.95;99862.59;5114613;28;815;-65
2023/09/01 17:53:55;;;;;;;;;;;;;;;23.33;65.66;99872.97;5114186;28;889;-65
2023/09/01 17:56:22;;;;;;;;;;;;;;;23.38;64.52;99870.22;5114215;28;842;-66
2023/09/01 17:58:49;;;;;;;;;;;;;;;23.40;64.35;99864.09;5114105;28;1914;-66
2023/09/01 18:01:17;;;;;;;;;;;;;;;23.36;65.08;99869.16;5113948;28;1301;-66
2023/09/01 18:03:44;;;;;;;;;;;;;;;23.27;65.36;99870.06;5114282;28;882;-66
2023/09/01 18:06:13;;;;;;;;;;;;;;;23.15;67.29;99871.94;5114055;28;970;-66
2023/09/01 18:08:40;;;;;;;;;;;;;;;22.98;68.98;99870.84;5113783;28;873;-66
2023/09/01 18:11:14;;;;;;;;;;;;;;;22.77;71.37;99870.75;5112740;28;1594;-66
2023/09/01 18:13:42;;;;;;;;;;;;;;;22.49;74.76;99870.25;5113986;28;824;-66
2023/09/01 18:16:10;;;;;;;;;;;;;;;22.29;77.91;99881.38;5113734;28;870;-65
2023/09/01 18:18:40;;;;;;;;;;;;;;;22.12;80.52;99875.38;5113813;28;889;-66
2023/09/01 18:21:10;;;;;;;;;;;;;;;21.97;82.75;99875.31;5112304;28;1961;-66
2023/09/01 18:23:39;;;;;;;;;;;;;;;21.82;85.71;99878.09;5113715;28;870;-66
2023/09/01 18:26:10;;;;;;;;;;;;;;;21.72;88.15;99879.38;5113619;28;898;-66
2023/09/01 18:28:45;;;;;;;;;;;;;;;21.65;89.86;99874.91;5113772;27;882;-66
2023/09/01 18:31:21;;;;;;;;;;;;;;;21.70;91.14;99879.88;5113445;28;895;-67
2023/09/01 18:33:48;;;;;;;;;;;;;;;21.85;90.68;99881.97;5112639;28;898;-66
2023/09/01 18:39:17;;;;;;;;;;;;;;;22.03;88.60;99882.63;5112499;28;1943;-66
2023/09/01 18:41:45;;;;;;;;;;;;;;;22.05;88.60;99890.59;5113325;28;871;-66
2023/09/01 18:44:12;;;;;;;;;;;;;;;22.05;88.88;99895.44;5113465;28;903;-66
2023/09/01 18:46:40;;;;;;;;;;;;;;;22.04;88.83;99894.69;5113352;28;835;-66
2023/09/01 18:49:09;;;;;;;;;;;;;;;22.03;88.98;99893.88;5113140;28;920;-66
2023/09/01 18:51:36;;;;;;;;;;;;;;;21.99;89.55;99898.13;5113174;28;831;-66
2023/09/01 18:54:20;;;;;;;;;;;;;;;21.91;90.78;99899.75;5113033;28;918;-66
2023/09/01 18:56:48;;;;;;;;;;;;;;;21.81;92.00;99902.63;5113112;28;827;-66
2023/09/01 18:59:22;;;;;;;;;;;;;;;21.75;93.05;99904.53;5112234;28;2043;-66
2023/09/01 19:01:49;;;;;;;;;;;;;;;21.73;93.33;99906.28;5113099;28;835;-66
2023/09/01 19:04:15;;;;;;;;;;;;;;;21.76;92.30;99920.19;5112938;28;898;-66
2023/09/01 19:06:42;;;;;;;;;;;;;;;21.88;90.87;99909.16;5112929;28;830;-66
2023/09/01 19:09:11;;;;;;;;;;;;;;;21.94;89.75;99913.66;5113027;28;870;-66
2023/09/01 19:11:38;;;;;;;;;;;;;;;21.94;89.67;99915.69;5112794;27;823;-66
2023/09/01 19:14:08;;;;;;;;;;;;;;;21.92;89.44;99913.34;5112749;28;855;-66
2023/09/01 19:16:36;;;;;;;;;;;;;;;21.94;89.09;99916.47;5112587;28;961;-66
2023/09/01 19:19:04;;;;;;;;;;;;;;;21.91;89.95;99908.19;5112644;28;1909;-66
2023/09/01 19:21:32;;;;;;;;;;;;;;;21.82;91.12;99903.41;5112638;28;1247;-66
2023/09/01 19:23:59;;;;;;;;;;;;;;;21.76;91.11;99908.13;5113001;28;799;-66
2023/09/01 19:26:27;;;;;;;;;;;;;;;21.81;91.56;99918.75;5112759;28;815;-67
2023/09/01 19:28:54;;;;;;;;;;;;;;;21.80;91.54;99917.94;5111291;28;1335;-66
2023/09/01 19:31:25;;;;;;;;;;;;;;;21.89;90.01;99917.13;5112896;28;860;-66
2023/09/01 19:34:17;;;;;;;;;;;;;;;21.99;88.95;99920.66;5112379;28;878;-67
2023/09/01 19:36:45;;;;;;;;;;;;;;;22.07;87.36;99909.81;5109168;28;1161;-66
2023/09/01 19:39:12;;;;;;;;;;;;;;;22.08;87.13;99911.38;5112268;28;1889;-66
2023/09/01 19:41:39;;;;;;;;;;;;;;;21.98;88.29;99913.47;5112461;28;850;-66
2023/09/01 19:44:10;;;;;;;;;;;;;;;21.85;89.40;99916.53;5112238;28;861;-66
2023/09/01 19:46:37;;;;;;;;;;;;;;;21.81;89.36;99915.94;5112236;28;874;-66
2023/09/01 19:49:09;;;;;;;;;;;;;;;21.85;88.83;99922.16;5112215;28;830;-66
2023/09/01 19:51:38;;;;;;;;;;;;;;;21.97;87.60;99917.53;5112430;28;820;-66
2023/09/01 19:54:05;;;;;;;;;;;;;;;22.07;85.96;99916.22;5112564;28;854;-66
2023/09/01 19:56:33;;;;;;;;;;;;;;;22.21;84.29;99914.72;5112371;28;815;-66
2023/09/01 19:59:03;;;;;;;;;;;;;;;22.32;82.33;99920.63;5112183;28;1946;-65
2023/09/01 20:01:31;;;;;;;;;;;;;;;22.33;82.40;99927.03;5112124;28;796;-67
2023/09/01 20:04:00;;;;;;;;;;;;;;;22.24;83.20;99930.69;5112321;28;911;-66
2023/09/01 20:06:28;;;;;;;;;;;;;;;22.15;84.04;99922.28;5112378;28;823;-66
2023/09/01 20:09:01;;;;;;;;;;;;;;;22.17;83.69;99934.63;5112053;28;847;-67
2023/09/01 20:11:27;;;;;;;;;;;;;;;22.27;82.57;99929.72;5112354;28;792;-66
2023/09/01 20:13:54;;;;;;;;;;;;;;;22.36;81.33;99935.28;5112159;28;851;-65
2023/09/01 20:16:31;;;;;;;;;;;;;;;22.50;80.12;99935.81;5112035;28;835;-65
2023/09/01 20:19:18;;;;;;;;;;;;;;;22.56;79.12;99933.88;5110621;28;1910;-67
2023/09/01 20:21:45;;;;;;;;;;;;;;;22.65;78.44;99942.25;5112255;28;1361;-65
2023/09/01 20:24:12;;;;;;;;;;;;;;;22.75;77.21;99948.59;5112146;28;792;-65
2023/09/01 20:26:39;;;;;;;;;;;;;;;22.81;76.71;99947.44;5112150;28;871;-66
2023/09/01 20:29:06;;;;;;;;;;;;;;;22.80;76.73;99945.09;5112197;28;822;-66
2023/09/01 20:31:33;;;;;;;;;;;;;;;22.65;77.54;99952.75;5112069;28;819;-66
2023/09/01 20:34:01;;;;;;;;;;;;;;;22.52;78.13;99953.00;5111996;28;855;-66
2023/09/01 20:36:28;;;;;;;;;;;;;;;22.47;78.42;99957.25;5111787;28;855;-67
2023/09/01 20:38:55;;;;;;;;;;;;;;;22.45;78.68;99956.16;5111725;28;1953;-66
2023/09/01 20:41:23;;;;;;;;;;;;;;;22.45;78.61;99970.25;5111740;28;835;-65
2023/09/01 20:43:49;;;;;;;;;;;;;;;22.48;78.46;99966.47;5111709;28;843;-66
2023/09/01 20:46:16;;;;;;;;;;;;;;;22.53;77.26;99965.81;5110492;28;828;-66
2023/09/01 20:48:43;;;;;;;;;;;;;;;22.66;75.56;99962.72;5111814;28;819;-66
2023/09/01 20:51:10;;;;;;;;;;;;;;;22.79;74.25;99971.72;5111758;28;800;-65
2023/09/01 20:53:37;;;;;;;;;;;;;;;22.89;72.51;99970.34;5111783;28;819;-66
2023/09/01 20:56:04;;;;;;;;;;;;;;;23.02;70.64;99970.91;5111643;27;917;-67
2023/09/01 20:58:31;;;;;;;;;;;;;;;23.04;70.47;99976.03;5113718;28;1400;-66
2023/09/01 21:00:58;;;;;;;;;;;;;;;23.05;70.52;99974.78;5114897;28;1885;-67
2023/09/01 21:03:26;;;;;;;;;;;;;;;22.96;71.29;99981.25;5115762;28;833;-66
2023/09/01 21:05:51;;;;;;;;;;;;;;;22.71;73.85;99985.38;5115124;27;842;-66
2023/09/01 21:08:18;;;;;;;;;;;;;;;22.50;75.75;99983.69;5113939;28;1607;-66
2023/09/01 21:10:45;;;;;;;;;;;;;;;22.43;75.70;99982.78;5115187;28;822;-66
2023/09/01 21:13:13;;;;;;;;;;;;;;;22.38;76.52;99985.47;5115258;28;862;-66
2023/09/01 21:15:40;;;;;;;;;;;;;;;22.22;78.33;99998.72;5115050;28;814;-65
2023/09/01 21:18:07;;;;;;;;;;;;;;;22.16;78.45;99992.16;5115157;28;823;-66
2023/09/01 21:20:34;;;;;;;;;;;;;;;22.26;77.77;99987.28;5114868;28;1905;-65
2023/09/01 21:23:01;;;;;;;;;;;;;;;22.26;77.91;99986.50;5115042;28;847;-66
2023/09/01 21:25:28;;;;;;;;;;;;;;;22.26;77.83;99994.97;5115082;28;908;-66
2023/09/01 21:27:56;;;;;;;;;;;;;;;22.21;78.33;99994.31;5115107;27;819;-66